MUC | München Airways

 METAR UND TAF INFORMATION

METAR FOR LRIA
ADDS - METARS form results

(0838 UTC 19 March 2019)
Data provider http://aviationweather.gov/metar/data/
 
METAR text: LRIA 190830Z 30011KT 280V340 CAVOK 10/03 Q1021
Conditions at: LRIA (IASI , RO) observed 0830 UTC 19 March 2019
Temperature: 10.0°C (50°F)
Dewpoint: 3.0°C (37°F) [RH = 62%]
Pressure (altimeter): 30.15 inches Hg (1021.0 mb)
Winds: from the WNW (300 degrees) at 13 MPH (11 knots; 5.7 m/s)
Visibility: 6 or more miles (10+ km)
Ceiling: ceiling and visibility are OK
Clouds: unknown
Weather: no significant weather observed at this time

METAR text: LRIA 190800Z 30011KT CAVOK 10/03 Q1020 R14/CLRD//
Conditions at: LRIA (IASI , RO) observed 0800 UTC 19 March 2019
Temperature: 10.0°C (50°F)
Dewpoint: 3.0°C (37°F) [RH = 62%]
Pressure (altimeter): 30.12 inches Hg (1020.0 mb)
Winds: from the WNW (300 degrees) at 13 MPH (11 knots; 5.7 m/s)
Visibility: 6 or more miles (10+ km)
Ceiling: ceiling and visibility are OK
Clouds: unknown
Weather: no significant weather observed at this time

Forecast for: LRIA (IASI , RO)
Text: TAF LRIA 190800Z 1909/1918 32010KT CAVOK
Forecast period: 0900 to 1800 UTC 19 March 2019
Forecast type: FROM: standard forecast or significant change
Winds: from the NW (320 degrees) at 12 MPH (10 knots; 5.1 m/s)
Visibility: 6 or more miles 10+ km)
Ceiling: unknown
Clouds: missing
Weather: NSW  (no significant weather)
Text: TEMPO 1910/1918 SCT035CB
Forecast period: 1000 to 1800 UTC 19 March 2019
Forecast type: TEMPORARY: The following changes expected for less than half the time period
Visibility: missing
Ceiling: at least 12,000 feet AGL
Clouds: scattered clouds at 3500 feet AGL
Weather: no significant weather forecast for this period

 FLUGHAFENKARTE

 RUNWAY INFORMATION
Runway 15 Runway length 5841 ft Runway width 98 ft
Runway elevation 397 ft Runway displaced threshold 0 ft Runway heading 154
Runway 33 Runway length 5841 ft Runway width 98 ft
Runway elevation 340 ft Runway displaced threshold 0 ft Runway heading 334

 AIRPORT FREQUENCIES
Type APP Name APP Frequency 119.2 MHZ
Type GCA Name PRECISION Frequency 118.8 MHZ
Type TWR Name TWR Frequency 119.2 MHZ

 AIRPORT NEAR NAVIGATION AIDS
Type NDB Name Iasi Frequency 391 KHZ